createdAt,value
2022-09-11T00:01:52.644Z,514.65
2022-09-11T00:04:40.545Z,498.80
2022-09-11T00:07:28.550Z,531.63
2022-09-11T00:10:17.539Z,515.55
2022-09-11T00:13:05.572Z,523.17
2022-09-11T00:15:53.621Z,491.17
2022-09-11T00:18:42.923Z,528.42
2022-09-11T00:21:30.894Z,545.50
2022-09-11T00:24:18.753Z,512.95
2022-09-11T00:27:06.910Z,517.05
2022-09-11T00:29:55.189Z,541.50
2022-09-11T00:32:43.090Z,501.63
2022-09-11T00:35:33.538Z,504.98
2022-09-11T00:38:21.483Z,511.80
2022-09-11T00:41:15.004Z,483.88
2022-09-11T00:44:06.071Z,529.17
2022-09-11T00:46:56.924Z,509.10
2022-09-11T00:49:48.659Z,475.77
2022-09-11T00:52:42.023Z,523.25
2022-09-11T00:55:35.275Z,515.55
2022-09-11T00:58:27.034Z,512.47
2022-09-11T01:01:15.554Z,494.27
2022-09-11T01:04:05.029Z,512.28
2022-09-11T01:06:57.497Z,517.28
2022-09-11T01:09:47.513Z,516.47
2022-09-11T01:12:45.114Z,521.47
2022-09-11T01:15:39.647Z,493.48
2022-09-11T01:18:32.984Z,519.55
2022-09-11T01:21:38.326Z,511.15
2022-09-11T01:24:43.961Z,531.40
2022-09-11T01:27:41.728Z,507.58
2022-09-11T01:30:37.183Z,473.63
2022-09-11T01:33:29.306Z,490.52
2022-09-11T01:36:22.092Z,485.55
2022-09-11T01:39:11.111Z,542.25
2022-09-11T01:42:04.385Z,510.52
2022-09-11T01:44:58.281Z,490.00
2022-09-11T01:47:49.399Z,537.30
2022-09-11T01:50:41.212Z,499.30
2022-09-11T01:53:34.573Z,488.30
2022-09-11T01:56:31.354Z,489.30
2022-09-11T01:59:26.065Z,506.10
2022-09-11T02:02:19.782Z,516.80
2022-09-11T02:05:10.967Z,503.58
2022-09-11T02:08:05.802Z,498.83
2022-09-11T02:11:03.400Z,512.38
2022-09-11T02:13:58.576Z,479.55
2022-09-11T02:16:50.801Z,487.42
2022-09-11T02:19:40.803Z,532.03
2022-09-11T02:22:29.263Z,466.80
2022-09-11T02:25:17.226Z,478.17
2022-09-11T02:28:06.763Z,496.00
2022-09-11T02:30:54.687Z,486.42
2022-09-11T02:33:43.525Z,511.92
2022-09-11T02:37:01.357Z,483.00
2022-09-11T02:40:04.455Z,477.73
2022-09-11T02:43:09.901Z,508.35
2022-09-11T02:46:16.142Z,476.73
2022-09-11T02:49:11.156Z,485.42
2022-09-11T02:52:08.123Z,499.15
2022-09-11T02:55:06.575Z,493.17
2022-09-11T02:58:01.072Z,509.77
2022-09-11T03:00:48.980Z,466.25
2022-09-11T03:03:41.312Z,500.95
2022-09-11T03:06:30.059Z,489.10
2022-09-11T03:09:18.628Z,487.92
2022-09-11T03:12:10.278Z,511.10
2022-09-11T03:14:58.884Z,501.02
2022-09-11T03:17:47.194Z,490.33
2022-09-11T03:20:36.472Z,476.98
2022-09-11T03:23:25.231Z,496.30
2022-09-11T03:26:13.935Z,482.42
2022-09-11T03:29:03.944Z,484.05
2022-09-11T03:31:52.823Z,491.65
2022-09-11T03:34:40.866Z,508.20
2022-09-11T03:37:29.465Z,509.25
2022-09-11T03:40:20.118Z,504.70
2022-09-11T03:43:08.008Z,494.15
2022-09-11T03:45:57.494Z,501.25
2022-09-11T03:48:46.065Z,468.83
2022-09-11T03:51:35.114Z,489.13
2022-09-11T03:54:23.057Z,513.50
2022-09-11T03:57:11.799Z,463.23
2022-09-11T04:00:01.452Z,489.33
2022-09-11T04:02:56.640Z,484.00
2022-09-11T04:05:59.030Z,503.73
2022-09-11T04:08:47.404Z,492.00
2022-09-11T04:11:38.726Z,476.70
2022-09-11T04:14:29.832Z,512.13
2022-09-11T04:17:19.541Z,484.05
2022-09-11T04:20:10.287Z,507.08
2022-09-11T04:22:58.875Z,488.50
2022-09-11T04:25:47.519Z,495.02
2022-09-11T04:28:35.478Z,510.08
2022-09-11T04:31:23.745Z,498.48
2022-09-11T04:34:12.321Z,517.00
2022-09-11T04:37:01.583Z,511.10
2022-09-11T04:39:50.923Z,503.38
2022-09-11T04:42:39.202Z,477.95
2022-09-11T04:45:27.405Z,500.92
2022-09-11T04:48:16.918Z,512.60
2022-09-11T04:51:06.912Z,504.98
2022-09-11T04:53:57.378Z,512.13
2022-09-11T04:56:48.810Z,522.05
2022-09-11T04:59:38.941Z,531.60
2022-09-11T05:02:30.090Z,480.15
2022-09-11T05:05:18.148Z,509.48
2022-09-11T05:08:06.319Z,486.80
2022-09-11T05:10:55.679Z,514.28
2022-09-11T05:13:45.275Z,478.85
2022-09-11T05:16:34.512Z,498.35
2022-09-11T05:19:23.096Z,497.73
2022-09-11T05:22:11.142Z,507.48
2022-09-11T05:25:03.105Z,491.05
2022-09-11T05:27:52.735Z,498.75
2022-09-11T05:30:40.676Z,493.52
2022-09-11T05:33:29.198Z,489.42
2022-09-11T05:36:17.863Z,510.05
2022-09-11T05:39:05.851Z,508.02
2022-09-11T05:41:55.852Z,527.15
2022-09-11T05:44:48.190Z,484.85
2022-09-11T05:47:37.066Z,500.55
2022-09-11T05:50:25.699Z,493.23
2022-09-11T05:53:14.354Z,483.95
2022-09-11T05:56:07.551Z,510.88
2022-09-11T05:58:55.592Z,515.40
2022-09-11T06:01:50.821Z,477.42
2022-09-11T06:04:48.019Z,525.40
2022-09-11T06:07:36.192Z,499.15
2022-09-11T06:10:24.326Z,515.67
2022-09-11T06:13:12.994Z,507.92
2022-09-11T06:16:02.918Z,495.55
2022-09-11T06:18:54.386Z,507.10
2022-09-11T06:21:43.071Z,494.38
2022-09-11T06:24:40.476Z,512.42
2022-09-11T06:27:28.955Z,489.08
2022-09-11T06:30:17.114Z,496.27
2022-09-11T06:33:05.881Z,494.55
2022-09-11T06:36:00.088Z,493.90
2022-09-11T06:38:53.190Z,508.50
2022-09-11T06:41:41.285Z,494.00
2022-09-11T06:44:33.712Z,543.42
2022-09-11T06:47:22.841Z,531.20
2022-09-11T06:50:11.769Z,507.30
2022-09-11T06:53:20.494Z,508.17
2022-09-11T06:56:16.953Z,521.97
2022-09-11T06:59:07.155Z,494.52
2022-09-11T07:01:55.709Z,537.33
2022-09-11T07:04:43.915Z,541.28
2022-09-11T07:07:32.252Z,525.35
2022-09-11T07:10:21.700Z,520.58
2022-09-11T07:13:14.486Z,563.17
2022-09-11T07:16:03.294Z,556.15
2022-09-11T07:18:54.104Z,581.60
2022-09-11T07:21:44.069Z,567.28
2022-09-11T07:24:33.083Z,570.13
2022-09-11T07:27:22.837Z,596.20
2022-09-11T07:30:12.416Z,632.88
2022-09-11T07:33:03.511Z,615.08
2022-09-11T07:35:52.246Z,617.63
2022-09-11T07:38:41.584Z,628.58
2022-09-11T07:41:31.110Z,628.00
2022-09-11T07:44:24.458Z,630.28
2022-09-11T07:47:12.845Z,612.75
2022-09-11T07:50:06.970Z,596.72
2022-09-11T07:52:56.074Z,630.50
2022-09-11T07:55:44.635Z,629.53
2022-09-11T07:58:34.975Z,606.17
2022-09-11T08:01:26.461Z,623.88
2022-09-11T08:04:15.232Z,585.45
2022-09-11T08:07:03.716Z,601.38
2022-09-11T08:10:16.336Z,616.95
2022-09-11T08:13:09.001Z,620.28
2022-09-11T08:15:58.579Z,610.08
2022-09-11T08:18:48.965Z,599.08
2022-09-11T08:21:37.793Z,612.78
2022-09-11T08:24:27.302Z,606.67
2022-09-11T08:27:19.014Z,585.22
2022-09-11T08:30:09.285Z,603.67
2022-09-11T08:32:57.735Z,596.15
2022-09-11T08:35:47.465Z,614.40
2022-09-11T08:38:36.185Z,599.28
2022-09-11T08:41:33.406Z,609.22
2022-09-11T08:44:25.538Z,623.08
2022-09-11T08:47:24.331Z,571.83
2022-09-11T08:50:21.510Z,577.13
2022-09-11T08:53:16.261Z,604.30
2022-09-11T08:56:10.150Z,613.42
2022-09-11T08:59:13.463Z,584.58
2022-09-11T09:02:18.378Z,581.50
2022-09-11T09:05:20.119Z,570.25
2022-09-11T09:08:26.049Z,597.20
2022-09-11T09:11:28.909Z,583.15
2022-09-11T09:14:33.335Z,580.53
2022-09-11T09:17:26.054Z,627.58
2022-09-11T09:20:21.236Z,612.97
2022-09-11T09:23:18.384Z,621.70
2022-09-11T09:26:17.065Z,615.50
2022-09-11T09:29:10.213Z,582.95
2022-09-11T09:32:02.146Z,579.72
2022-09-11T09:34:56.203Z,547.58
2022-09-11T09:37:45.717Z,578.35
2022-09-11T09:40:37.445Z,587.20
2022-09-11T09:43:44.386Z,563.28
2022-09-11T09:46:42.390Z,501.17
2022-09-11T09:49:34.040Z,494.35
2022-09-11T09:52:24.392Z,507.92
2022-09-11T09:55:17.160Z,469.17
2022-09-11T09:58:07.141Z,495.88
2022-09-11T10:00:55.071Z,502.02
2022-09-11T10:03:43.964Z,475.98
2022-09-11T10:06:31.880Z,517.70
2022-09-11T10:09:23.024Z,533.95
2022-09-11T10:12:17.586Z,564.92
2022-09-11T10:15:08.073Z,605.25
2022-09-11T10:18:20.604Z,626.75
2022-09-11T10:21:29.289Z,584.70
2022-09-11T10:24:23.463Z,575.67
2022-09-11T10:27:13.918Z,642.20
2022-09-11T10:30:02.302Z,615.00
2022-09-11T10:32:51.803Z,631.55
2022-09-11T10:35:39.837Z,621.90
2022-09-11T10:38:32.017Z,632.17
2022-09-11T10:41:22.122Z,637.42
2022-09-11T10:44:15.921Z,625.50
2022-09-11T10:47:06.324Z,630.13
2022-09-11T10:50:20.329Z,627.50
2022-09-11T10:53:18.849Z,638.08
2022-09-11T10:56:09.877Z,634.17
2022-09-11T10:59:04.412Z,626.95
2022-09-11T11:01:53.655Z,632.08
2022-09-11T11:04:41.634Z,646.78
2022-09-11T11:07:46.405Z,656.53
2022-09-11T11:10:45.584Z,633.72
2022-09-11T11:13:47.097Z,651.22
2022-09-11T11:16:47.441Z,647.40
2022-09-11T11:19:47.221Z,637.80
2022-09-11T11:23:05.627Z,636.35
2022-09-11T11:26:04.118Z,659.63
2022-09-11T11:29:16.151Z,675.53
2022-09-11T11:32:21.061Z,665.80
2022-09-11T11:35:21.634Z,643.17
2022-09-11T11:38:15.252Z,622.25
2022-09-11T11:41:08.756Z,594.72
2022-09-11T11:44:00.200Z,589.22
2022-09-11T11:46:52.246Z,601.97
2022-09-11T11:50:01.689Z,621.20
2022-09-11T11:52:59.790Z,601.72
2022-09-11T11:55:59.296Z,584.13
2022-09-11T11:58:52.560Z,603.95
2022-09-11T12:01:45.485Z,605.78
2022-09-11T12:04:43.085Z,583.65
2022-09-11T12:07:32.889Z,589.85
2022-09-11T12:10:28.033Z,582.78
2022-09-11T12:13:20.290Z,556.35
2022-09-11T12:16:14.785Z,587.40
2022-09-11T12:19:07.417Z,583.95
2022-09-11T12:22:14.383Z,539.15
2022-09-11T12:25:03.297Z,554.90
2022-09-11T12:28:11.253Z,494.17
2022-09-11T12:31:06.282Z,500.95
2022-09-11T12:33:56.266Z,528.50
2022-09-11T12:36:54.467Z,529.67
2022-09-11T12:39:51.560Z,513.20
2022-09-11T12:43:00.910Z,495.92
2022-09-11T12:45:48.843Z,494.25
2022-09-11T12:48:42.710Z,481.73
2022-09-11T12:51:34.384Z,490.38
2022-09-11T12:54:26.577Z,467.98
2022-09-11T12:57:20.112Z,460.63
2022-09-11T13:00:22.630Z,482.48
2022-09-11T13:03:18.942Z,451.50
2022-09-11T13:06:11.722Z,464.52
2022-09-11T13:09:02.109Z,473.92
2022-09-11T13:11:52.438Z,463.70
2022-09-11T13:14:51.684Z,450.80
2022-09-11T13:17:47.467Z,451.20
2022-09-11T13:20:35.467Z,463.10
2022-09-11T13:23:25.067Z,475.20
2022-09-11T13:26:20.450Z,446.25
2022-09-11T13:29:14.840Z,467.20
2022-09-11T13:32:11.359Z,475.33
2022-09-11T13:35:11.030Z,451.73
2022-09-11T13:38:03.298Z,449.83
2022-09-11T13:40:56.786Z,467.48
2022-09-11T13:43:48.479Z,479.55
2022-09-11T13:46:36.430Z,446.88
2022-09-11T13:49:33.395Z,473.98
2022-09-11T13:52:23.704Z,483.00
2022-09-11T13:55:19.149Z,477.83
2022-09-11T13:58:24.089Z,475.58
2022-09-11T14:01:14.220Z,465.45
2022-09-11T14:04:04.398Z,435.17
2022-09-11T14:06:52.335Z,453.98
2022-09-11T14:09:40.266Z,430.70
2022-09-11T14:12:29.853Z,453.85
2022-09-11T14:15:23.673Z,442.90
2022-09-11T14:18:19.838Z,466.70
2022-09-11T14:21:15.798Z,444.67
2022-09-11T14:24:07.165Z,448.63
2022-09-11T14:26:58.054Z,439.95
2022-09-11T14:29:53.469Z,447.65
2022-09-11T14:32:42.803Z,446.50
2022-09-11T14:35:31.394Z,452.52
2022-09-11T14:38:23.543Z,448.00
2022-09-11T14:41:12.412Z,447.38
2022-09-11T14:44:00.720Z,447.45
2022-09-11T14:46:48.754Z,455.15
2022-09-11T14:49:37.970Z,438.10
2022-09-11T14:52:29.087Z,452.38
2022-09-11T14:55:19.664Z,449.05
2022-09-11T14:58:09.264Z,434.17
2022-09-11T15:00:57.970Z,441.88
2022-09-11T15:03:46.054Z,444.42
2022-09-11T15:06:35.924Z,465.02
2022-09-11T15:09:25.176Z,468.45
2022-09-11T15:12:14.583Z,505.05
2022-09-11T15:15:03.993Z,494.95
2022-09-11T15:17:51.996Z,474.42
2022-09-11T15:20:39.940Z,483.67
2022-09-11T15:23:29.160Z,482.55
2022-09-11T15:26:17.088Z,498.83
2022-09-11T15:29:09.832Z,481.92
2022-09-11T15:31:57.786Z,486.63
2022-09-11T15:34:46.264Z,473.95
2022-09-11T15:37:34.174Z,486.88
2022-09-11T15:40:23.693Z,469.70
2022-09-11T15:43:12.006Z,499.48
2022-09-11T15:45:59.983Z,454.77
2022-09-11T15:48:49.757Z,434.50
2022-09-11T15:51:38.798Z,460.90
2022-09-11T15:54:27.339Z,455.80
2022-09-11T15:57:16.647Z,439.08
2022-09-11T16:00:05.300Z,449.65
2022-09-11T16:02:59.877Z,420.55
2022-09-11T16:05:47.825Z,431.02
2022-09-11T16:08:35.711Z,432.40
2022-09-11T16:11:24.497Z,449.25
2022-09-11T16:14:18.673Z,452.90
2022-09-11T16:17:08.178Z,464.23
2022-09-11T16:19:56.056Z,465.85
2022-09-11T16:22:44.295Z,474.33
2022-09-11T16:25:32.177Z,487.42
2022-09-11T16:28:20.141Z,494.95
2022-09-11T16:31:09.710Z,493.60
2022-09-11T16:33:57.860Z,476.95
2022-09-11T16:36:46.309Z,507.27
2022-09-11T16:39:34.217Z,491.17
2022-09-11T16:42:22.137Z,493.13
2022-09-11T16:45:10.780Z,485.75
2022-09-11T16:48:00.839Z,515.70
2022-09-11T16:50:53.237Z,477.60
2022-09-11T16:53:42.158Z,516.10
2022-09-11T16:56:30.179Z,494.50
2022-09-11T16:59:19.766Z,524.30
2022-09-11T17:02:07.803Z,497.40
2022-09-11T17:04:57.040Z,518.72
2022-09-11T17:07:45.011Z,515.78
2022-09-11T17:10:32.970Z,532.08
2022-09-11T17:13:22.480Z,535.55
2022-09-11T17:16:16.134Z,526.50
2022-09-11T17:19:05.169Z,542.97
2022-09-11T17:21:54.534Z,577.35
2022-09-11T17:24:42.501Z,579.95
2022-09-11T17:27:31.031Z,589.60
2022-09-11T17:30:19.511Z,593.53
2022-09-11T17:33:08.088Z,611.45
2022-09-11T17:35:57.009Z,615.10
2022-09-11T17:38:48.180Z,579.78
2022-09-11T17:41:36.113Z,605.55
2022-09-11T17:44:24.723Z,602.42
2022-09-11T17:47:12.645Z,588.90
2022-09-11T17:50:01.548Z,589.72
2022-09-11T17:52:50.063Z,583.33
2022-09-11T17:55:40.334Z,592.78
2022-09-11T17:58:29.412Z,577.22
2022-09-11T18:01:17.459Z,568.47
2022-09-11T18:04:05.579Z,588.85
2022-09-11T18:06:53.785Z,574.83
2022-09-11T18:09:41.866Z,572.28
2022-09-11T18:12:35.130Z,577.53
2022-09-11T18:15:23.048Z,576.17
2022-09-11T18:18:11.217Z,604.58
2022-09-11T18:21:05.390Z,565.65
2022-09-11T18:23:54.572Z,593.97
2022-09-11T18:26:42.462Z,571.13
2022-09-11T18:29:31.782Z,587.85
2022-09-11T18:32:20.093Z,587.45
2022-09-11T18:35:09.319Z,601.75
2022-09-11T18:37:57.436Z,611.30
2022-09-11T18:40:45.487Z,589.08
2022-09-11T18:43:33.467Z,569.58
2022-09-11T18:46:22.840Z,606.40
2022-09-11T18:49:13.686Z,556.22
2022-09-11T18:52:01.853Z,573.40
2022-09-11T18:54:49.729Z,576.95
2022-09-11T18:57:41.679Z,566.42
2022-09-11T19:00:31.038Z,589.53
2022-09-11T19:03:21.457Z,543.65
2022-09-11T19:06:11.721Z,579.45
2022-09-11T19:09:00.258Z,550.90
2022-09-11T19:11:48.340Z,577.33
2022-09-11T19:14:37.719Z,542.47
2022-09-11T19:17:25.612Z,557.80
2022-09-11T19:20:14.888Z,561.00
2022-09-11T19:23:03.457Z,568.33
2022-09-11T19:25:51.400Z,558.13
2022-09-11T19:28:40.970Z,572.42
2022-09-11T19:31:29.959Z,556.88
2022-09-11T19:34:17.968Z,576.00
2022-09-11T19:37:07.863Z,551.83
2022-09-11T19:39:57.172Z,575.63
2022-09-11T19:42:45.160Z,567.33
2022-09-11T19:45:33.674Z,580.00
2022-09-11T19:48:22.219Z,575.17
2022-09-11T19:51:11.986Z,587.17
2022-09-11T19:54:03.094Z,571.97
2022-09-11T19:56:51.683Z,585.78
2022-09-11T19:59:39.637Z,572.35
2022-09-11T20:02:27.577Z,581.53
2022-09-11T20:05:15.969Z,574.88
2022-09-11T20:08:04.066Z,568.67
2022-09-11T20:10:53.398Z,584.95
2022-09-11T20:13:41.409Z,564.42
2022-09-11T20:16:29.684Z,556.47
2022-09-11T20:19:17.764Z,562.63
2022-09-11T20:22:05.770Z,572.63
2022-09-11T20:24:53.697Z,582.47
2022-09-11T20:27:42.942Z,563.35
2022-09-11T20:30:32.488Z,559.47
2022-09-11T20:33:20.370Z,566.38
2022-09-11T20:36:08.563Z,547.70
2022-09-11T20:38:58.021Z,561.40
2022-09-11T20:41:46.092Z,567.47
2022-09-11T20:44:37.136Z,577.80
2022-09-11T20:47:25.339Z,551.85
2022-09-11T20:50:14.031Z,566.00
2022-09-11T20:53:01.925Z,557.38
2022-09-11T20:55:50.168Z,549.35
2022-09-11T20:58:38.863Z,555.72
2022-09-11T21:01:32.220Z,543.67
2022-09-11T21:04:20.385Z,549.97
2022-09-11T21:07:08.433Z,550.67
2022-09-11T21:09:56.365Z,573.85
2022-09-11T21:12:44.272Z,553.67
2022-09-11T21:15:32.214Z,557.78
2022-09-11T21:18:21.510Z,562.78
2022-09-11T21:21:09.433Z,555.88
2022-09-11T21:23:58.690Z,541.47
2022-09-11T21:26:46.939Z,540.13
2022-09-11T21:29:34.904Z,536.15
2022-09-11T21:32:22.904Z,551.60
2022-09-11T21:35:12.310Z,551.85
2022-09-11T21:38:00.217Z,577.47
2022-09-11T21:40:48.259Z,549.03
2022-09-11T21:43:37.133Z,525.40
2022-09-11T21:46:25.693Z,563.47
2022-09-11T21:49:13.672Z,555.72
2022-09-11T21:52:03.744Z,584.42
2022-09-11T21:54:54.689Z,567.42
2022-09-11T21:57:42.642Z,538.30
2022-09-11T22:00:30.631Z,556.97
2022-09-11T22:03:20.008Z,541.65
2022-09-11T22:06:10.088Z,558.25
2022-09-11T22:08:59.498Z,565.75
2022-09-11T22:11:47.487Z,561.78
2022-09-11T22:14:35.623Z,548.97
2022-09-11T22:17:24.066Z,552.17
2022-09-11T22:20:12.035Z,540.08
2022-09-11T22:23:00.234Z,537.35
2022-09-11T22:25:57.644Z,518.25
2022-09-11T22:28:45.824Z,536.22
2022-09-11T22:31:33.770Z,525.08
2022-09-11T22:34:21.734Z,531.95
2022-09-11T22:37:09.628Z,554.53
2022-09-11T22:39:57.635Z,548.28
2022-09-11T22:42:46.947Z,525.42
2022-09-11T22:45:34.961Z,541.97
2022-09-11T22:48:23.273Z,558.97
2022-09-11T22:51:11.884Z,531.13
2022-09-11T22:54:00.588Z,539.83
2022-09-11T22:56:48.493Z,531.65
2022-09-11T22:59:37.890Z,540.58
2022-09-11T23:02:26.959Z,555.00
2022-09-11T23:05:34.679Z,523.92
2022-09-11T23:08:22.601Z,546.38
2022-09-11T23:11:11.371Z,522.83
2022-09-11T23:13:59.319Z,530.38
2022-09-11T23:16:48.558Z,540.95
2022-09-11T23:19:36.567Z,554.40
2022-09-11T23:22:24.635Z,532.20
2022-09-11T23:25:13.744Z,527.97
2022-09-11T23:28:01.623Z,531.80
2022-09-11T23:30:49.613Z,545.80
2022-09-11T23:33:38.948Z,513.67
2022-09-11T23:36:28.550Z,537.00
2022-09-11T23:39:16.602Z,528.13
2022-09-11T23:42:04.643Z,520.65
2022-09-11T23:44:52.545Z,526.40
2022-09-11T23:47:40.578Z,554.78
2022-09-11T23:50:29.883Z,542.17
2022-09-11T23:53:17.800Z,531.15
2022-09-11T23:56:06.378Z,525.55
2022-09-11T23:58:54.321Z,502.63
